sensor_id;sensor_type;location;lat;lon;timestamp;temperature;humidity
54930;DHT22;40833;53.238;6.576;2023-07-02T00:16:11;15.30;99.90
54930;DHT22;40833;53.238;6.576;2023-07-02T00:21:05;15.90;99.90
54930;DHT22;40833;53.238;6.576;2023-07-02T00:35:42;15.20;99.90
54930;DHT22;40833;53.238;6.576;2023-07-02T00:40:33;14.80;99.90
54930;DHT22;40833;53.238;6.576;2023-07-02T00:47:54;15.10;99.90
54930;DHT22;40833;53.238;6.576;2023-07-02T00:50:21;15.10;99.90
54930;DHT22;40833;53.238;6.576;2023-07-02T01:00:07;15.00;99.90
54930;DHT22;40833;53.238;6.576;2023-07-02T01:07:25;15.10;99.90
54930;DHT22;40833;53.238;6.576;2023-07-02T01:12:17;15.20;99.90
54930;DHT22;40833;53.238;6.576;2023-07-02T01:14:49;14.80;99.90
54930;DHT22;40833;53.238;6.576;2023-07-02T01:17:17;14.90;99.90
54930;DHT22;40833;53.238;6.576;2023-07-02T01:19:51;15.20;99.90
54930;DHT22;40833;53.238;6.576;2023-07-02T01:22:23;14.90;99.90
54930;DHT22;40833;53.238;6.576;2023-07-02T01:24:52;14.80;99.90
54930;DHT22;40833;53.238;6.576;2023-07-02T01:27:19;14.90;99.90
54930;DHT22;40833;53.238;6.576;2023-07-02T01:29:45;14.60;99.90
54930;DHT22;40833;53.238;6.576;2023-07-02T01:32:13;14.40;99.90
54930;DHT22;40833;53.238;6.576;2023-07-02T01:37:05;14.40;99.90
54930;DHT22;40833;53.238;6.576;2023-07-02T01:39:31;14.70;99.90
54930;DHT22;40833;53.238;6.576;2023-07-02T01:42:14;14.60;99.90
54930;DHT22;40833;53.238;6.576;2023-07-02T01:44:42;14.40;99.90
54930;DHT22;40833;53.238;6.576;2023-07-02T01:47:08;14.40;99.90
54930;DHT22;40833;53.238;6.576;2023-07-02T01:49:34;14.40;99.90
54930;DHT22;40833;53.238;6.576;2023-07-02T01:52:01;14.40;99.90
54930;DHT22;40833;53.238;6.576;2023-07-02T01:54:27;14.30;99.90
54930;DHT22;40833;53.238;6.576;2023-07-02T02:01:46;14.20;99.90
54930;DHT22;40833;53.238;6.576;2023-07-02T02:04:12;14.20;99.90
54930;DHT22;40833;53.238;6.576;2023-07-02T02:06:38;14.40;99.90
54930;DHT22;40833;53.238;6.576;2023-07-02T02:09:05;14.10;99.90
54930;DHT22;40833;53.238;6.576;2023-07-02T02:11:32;14.30;99.90
54930;DHT22;40833;53.238;6.576;2023-07-02T02:16:27;14.10;99.90
54930;DHT22;40833;53.238;6.576;2023-07-02T02:28:38;14.30;99.90
54930;DHT22;40833;53.238;6.576;2023-07-02T02:31:03;14.00;99.90
54930;DHT22;40833;53.238;6.576;2023-07-02T03:10:05;13.70;99.90
54930;DHT22;40833;53.238;6.576;2023-07-02T03:27:07;13.90;99.90
54930;DHT22;40833;53.238;6.576;2023-07-02T03:29:34;13.80;99.90
54930;DHT22;40833;53.238;6.576;2023-07-02T03:39:18;13.60;99.90
54930;DHT22;40833;53.238;6.576;2023-07-02T03:41:44;13.90;99.90
54930;DHT22;40833;53.238;6.576;2023-07-02T03:44:10;13.80;99.90
54930;DHT22;40833;53.238;6.576;2023-07-02T03:49:05;14.30;99.90
54930;DHT22;40833;53.238;6.576;2023-07-02T03:54:00;14.10;99.90
54930;DHT22;40833;53.238;6.576;2023-07-02T04:03:52;14.20;99.90
54930;DHT22;40833;53.238;6.576;2023-07-02T04:11:11;14.30;99.90
54930;DHT22;40833;53.238;6.576;2023-07-02T04:16:03;14.30;99.90
54930;DHT22;40833;53.238;6.576;2023-07-02T04:18:28;14.40;99.90
54930;DHT22;40833;53.238;6.576;2023-07-02T04:20:55;14.60;99.90
54930;DHT22;40833;53.238;6.576;2023-07-02T04:25:47;14.40;99.90
54930;DHT22;40833;53.238;6.576;2023-07-02T04:30:38;14.60;99.90
54930;DHT22;40833;53.238;6.576;2023-07-02T04:33:04;14.50;99.90
54930;DHT22;40833;53.238;6.576;2023-07-02T04:35:31;14.50;99.90
54930;DHT22;40833;53.238;6.576;2023-07-02T04:37:57;14.60;99.90
54930;DHT22;40833;53.238;6.576;2023-07-02T04:40:23;14.40;99.90
54930;DHT22;40833;53.238;6.576;2023-07-02T04:42:49;14.90;99.90
54930;DHT22;40833;53.238;6.576;2023-07-02T04:45:24;14.40;99.90
54930;DHT22;40833;53.238;6.576;2023-07-02T04:47:50;14.40;99.90
54930;DHT22;40833;53.238;6.576;2023-07-02T04:50:17;14.50;99.90
54930;DHT22;40833;53.238;6.576;2023-07-02T04:52:43;14.40;99.90
54930;DHT22;40833;53.238;6.576;2023-07-02T04:55:09;14.40;99.90
54930;DHT22;40833;53.238;6.576;2023-07-02T05:00:03;14.50;99.90
54930;DHT22;40833;53.238;6.576;2023-07-02T05:29:17;15.40;99.90
54930;DHT22;40833;53.238;6.576;2023-07-02T05:36:35;15.40;99.90
54930;DHT22;40833;53.238;6.576;2023-07-02T05:39:00;15.80;99.90
54930;DHT22;40833;53.238;6.576;2023-07-02T05:43:57;16.40;99.90
54930;DHT22;40833;53.238;6.576;2023-07-02T05:51:20;15.70;99.90
54930;DHT22;40833;53.238;6.576;2023-07-02T05:56:13;16.10;99.90
54930;DHT22;40833;53.238;6.576;2023-07-02T05:58:38;15.60;99.90
54930;DHT22;40833;53.238;6.576;2023-07-02T06:03:31;15.50;99.90
54930;DHT22;40833;53.238;6.576;2023-07-02T06:05:57;15.90;99.90
54930;DHT22;40833;53.238;6.576;2023-07-02T06:08:23;15.90;99.90
54930;DHT22;40833;53.238;6.576;2023-07-02T06:10:48;16.10;99.90
54930;DHT22;40833;53.238;6.576;2023-07-02T06:15:40;16.40;99.90
54930;DHT22;40833;53.238;6.576;2023-07-02T06:22:58;16.00;99.90
54930;DHT22;40833;53.238;6.576;2023-07-02T06:27:50;16.30;99.90
54930;DHT22;40833;53.238;6.576;2023-07-02T06:30:17;16.30;99.90
54930;DHT22;40833;53.238;6.576;2023-07-02T06:32:42;16.30;99.90
54930;DHT22;40833;53.238;6.576;2023-07-02T06:35:08;16.30;99.90
54930;DHT22;40833;53.238;6.576;2023-07-02T06:44:52;16.70;99.90
54930;DHT22;40833;53.238;6.576;2023-07-02T06:47:18;16.60;99.90
54930;DHT22;40833;53.238;6.576;2023-07-02T06:49:43;16.50;99.90
54930;DHT22;40833;53.238;6.576;2023-07-02T06:52:09;16.50;99.90
54930;DHT22;40833;53.238;6.576;2023-07-02T06:54:35;16.50;99.90
54930;DHT22;40833;53.238;6.576;2023-07-02T06:57:01;16.40;99.90
54930;DHT22;40833;53.238;6.576;2023-07-02T06:59:26;16.40;99.90
54930;DHT22;40833;53.238;6.576;2023-07-02T07:01:52;16.40;99.90
54930;DHT22;40833;53.238;6.576;2023-07-02T07:11:37;16.80;99.90
54930;DHT22;40833;53.238;6.576;2023-07-02T07:14:02;16.60;99.90
54930;DHT22;40833;53.238;6.576;2023-07-02T07:26:12;17.10;99.90
54930;DHT22;40833;53.238;6.576;2023-07-02T08:00:17;17.70;99.90
54930;DHT22;40833;53.238;6.576;2023-07-02T08:02:45;17.60;99.90
54930;DHT22;40833;53.238;6.576;2023-07-02T08:10:03;18.40;99.90
54930;DHT22;40833;53.238;6.576;2023-07-02T08:14:58;18.20;99.90
54930;DHT22;40833;53.238;6.576;2023-07-02T08:29:33;17.40;99.90
54930;DHT22;40833;53.238;6.576;2023-07-02T08:36:51;17.50;99.90
54930;DHT22;40833;53.238;6.576;2023-07-02T08:41:47;16.80;99.90
54930;DHT22;40833;53.238;6.576;2023-07-02T08:44:14;16.60;99.90
54930;DHT22;40833;53.238;6.576;2023-07-02T08:46:41;16.70;99.90
54930;DHT22;40833;53.238;6.576;2023-07-02T08:49:08;16.80;99.90
54930;DHT22;40833;53.238;6.576;2023-07-02T08:51:34;17.00;99.90
54930;DHT22;40833;53.238;6.576;2023-07-02T08:54:01;17.60;99.90
54930;DHT22;40833;53.238;6.576;2023-07-02T09:03:45;18.10;99.90
54930;DHT22;40833;53.238;6.576;2023-07-02T09:06:12;17.50;99.90
54930;DHT22;40833;53.238;6.576;2023-07-02T09:08:38;17.60;99.90
54930;DHT22;40833;53.238;6.576;2023-07-02T09:11:14;17.60;99.90
54930;DHT22;40833;53.238;6.576;2023-07-02T09:13:49;17.60;99.90
54930;DHT22;40833;53.238;6.576;2023-07-02T09:16:28;17.30;99.90
54930;DHT22;40833;53.238;6.576;2023-07-02T09:19:05;17.40;99.90
54930;DHT22;40833;53.238;6.576;2023-07-02T09:21:47;17.00;99.90
54930;DHT22;40833;53.238;6.576;2023-07-02T09:26:42;17.60;99.90
54930;DHT22;40833;53.238;6.576;2023-07-02T09:29:08;17.60;99.90
54930;DHT22;40833;53.238;6.576;2023-07-02T09:31:43;18.00;99.90
54930;DHT22;40833;53.238;6.576;2023-07-02T09:34:09;18.50;99.90
54930;DHT22;40833;53.238;6.576;2023-07-02T09:36:35;18.60;99.90
54930;DHT22;40833;53.238;6.576;2023-07-02T09:44:00;19.30;99.90
54930;DHT22;40833;53.238;6.576;2023-07-02T09:46:26;19.00;99.90
54930;DHT22;40833;53.238;6.576;2023-07-02T09:48:52;19.30;99.90
54930;DHT22;40833;53.238;6.576;2023-07-02T09:51:18;19.70;99.90
54930;DHT22;40833;53.238;6.576;2023-07-02T09:56:10;19.40;99.90
54930;DHT22;40833;53.238;6.576;2023-07-02T10:03:32;20.00;99.90
54930;DHT22;40833;53.238;6.576;2023-07-02T10:06:05;19.90;99.90
54930;DHT22;40833;53.238;6.576;2023-07-02T10:11:11;19.60;99.90
54930;DHT22;40833;53.238;6.576;2023-07-02T10:13:37;19.30;99.90
54930;DHT22;40833;53.238;6.576;2023-07-02T10:16:04;19.20;99.90
54930;DHT22;40833;53.238;6.576;2023-07-02T10:18:30;18.70;99.90
54930;DHT22;40833;53.238;6.576;2023-07-02T10:20:55;19.10;99.90
54930;DHT22;40833;53.238;6.576;2023-07-02T10:23:35;19.00;99.90
54930;DHT22;40833;53.238;6.576;2023-07-02T10:26:30;19.00;99.90
54930;DHT22;40833;53.238;6.576;2023-07-02T10:28:59;18.80;99.90
54930;DHT22;40833;53.238;6.576;2023-07-02T10:31:26;18.90;99.90
54930;DHT22;40833;53.238;6.576;2023-07-02T10:33:51;19.00;99.90
54930;DHT22;40833;53.238;6.576;2023-07-02T10:36:19;19.00;99.90
54930;DHT22;40833;53.238;6.576;2023-07-02T10:41:22;19.20;99.90
54930;DHT22;40833;53.238;6.576;2023-07-02T10:46:22;18.70;99.90
54930;DHT22;40833;53.238;6.576;2023-07-02T10:48:55;18.90;99.90
54930;DHT22;40833;53.238;6.576;2023-07-02T10:51:22;19.00;99.90
54930;DHT22;40833;53.238;6.576;2023-07-02T10:54:01;19.20;99.90
54930;DHT22;40833;53.238;6.576;2023-07-02T10:58:54;19.60;99.90
54930;DHT22;40833;53.238;6.576;2023-07-02T11:01:24;20.20;99.90
54930;DHT22;40833;53.238;6.576;2023-07-02T11:04:04;20.20;99.90
54930;DHT22;40833;53.238;6.576;2023-07-02T11:06:32;20.30;99.90
54930;DHT22;40833;53.238;6.576;2023-07-02T11:08:59;20.50;99.90
54930;DHT22;40833;53.238;6.576;2023-07-02T11:11:25;20.80;99.90
54930;DHT22;40833;53.238;6.576;2023-07-02T11:13:52;21.10;99.90
54930;DHT22;40833;53.238;6.576;2023-07-02T11:16:23;20.70;99.90
54930;DHT22;40833;53.238;6.576;2023-07-02T11:19:09;21.00;99.90
54930;DHT22;40833;53.238;6.576;2023-07-02T11:21:35;20.80;99.90
54930;DHT22;40833;53.238;6.576;2023-07-02T11:24:06;21.00;98.70
54930;DHT22;40833;53.238;6.576;2023-07-02T11:26:40;21.10;99.90
54930;DHT22;40833;53.238;6.576;2023-07-02T11:29:11;21.50;99.90
54930;DHT22;40833;53.238;6.576;2023-07-02T11:34:13;21.10;99.90
54930;DHT22;40833;53.238;6.576;2023-07-02T11:41:43;20.60;99.90
54930;DHT22;40833;53.238;6.576;2023-07-02T11:44:09;20.90;99.90
54930;DHT22;40833;53.238;6.576;2023-07-02T11:49:02;21.20;98.20
54930;DHT22;40833;53.238;6.576;2023-07-02T11:51:28;22.30;99.90
54930;DHT22;40833;53.238;6.576;2023-07-02T11:53:53;21.50;98.30
54930;DHT22;40833;53.238;6.576;2023-07-02T11:56:19;21.60;97.70
54930;DHT22;40833;53.238;6.576;2023-07-02T11:58:45;21.50;97.40
54930;DHT22;40833;53.238;6.576;2023-07-02T12:01:10;21.40;98.00
54930;DHT22;40833;53.238;6.576;2023-07-02T12:03:36;20.60;99.90
54930;DHT22;40833;53.238;6.576;2023-07-02T12:06:02;21.00;99.90
54930;DHT22;40833;53.238;6.576;2023-07-02T12:32:57;19.60;99.90
54930;DHT22;40833;53.238;6.576;2023-07-02T12:37:51;19.60;98.20
54930;DHT22;40833;53.238;6.576;2023-07-02T12:40:17;19.60;98.70
54930;DHT22;40833;53.238;6.576;2023-07-02T12:42:44;19.60;98.80
54930;DHT22;40833;53.238;6.576;2023-07-02T12:45:11;19.90;99.90
54930;DHT22;40833;53.238;6.576;2023-07-02T12:47:38;19.70;99.00
54930;DHT22;40833;53.238;6.576;2023-07-02T12:50:05;19.40;99.90
54930;DHT22;40833;53.238;6.576;2023-07-02T12:57:23;22.80;99.70
54930;DHT22;40833;53.238;6.576;2023-07-02T12:59:49;19.80;99.10
54930;DHT22;40833;53.238;6.576;2023-07-02T13:02:14;19.80;99.30
54930;DHT22;40833;53.238;6.576;2023-07-02T13:04:40;19.70;99.90
54930;DHT22;40833;53.238;6.576;2023-07-02T13:07:06;19.80;98.80
54930;DHT22;40833;53.238;6.576;2023-07-02T13:09:31;19.70;99.30
54930;DHT22;40833;53.238;6.576;2023-07-02T13:11:57;19.70;99.40
54930;DHT22;40833;53.238;6.576;2023-07-02T13:14:23;20.00;99.90
54930;DHT22;40833;53.238;6.576;2023-07-02T13:16:49;20.50;99.90
54930;DHT22;40833;53.238;6.576;2023-07-02T13:21:41;20.70;97.80
54930;DHT22;40833;53.238;6.576;2023-07-02T13:24:07;20.40;98.50
54930;DHT22;40833;53.238;6.576;2023-07-02T13:26:33;20.20;99.10
54930;DHT22;40833;53.238;6.576;2023-07-02T13:28:58;20.00;99.20
54930;DHT22;40833;53.238;6.576;2023-07-02T13:31:24;19.90;99.90
54930;DHT22;40833;53.238;6.576;2023-07-02T13:41:08;19.60;99.70
54930;DHT22;40833;53.238;6.576;2023-07-02T13:43:34;19.40;99.90
54930;DHT22;40833;53.238;6.576;2023-07-02T13:46:00;19.40;99.90
54930;DHT22;40833;53.238;6.576;2023-07-02T13:48:26;19.40;99.90
54930;DHT22;40833;53.238;6.576;2023-07-02T13:50:51;19.50;99.90
54930;DHT22;40833;53.238;6.576;2023-07-02T13:53:17;19.60;99.90
54930;DHT22;40833;53.238;6.576;2023-07-02T14:03:02;19.40;99.90
54930;DHT22;40833;53.238;6.576;2023-07-02T14:07:53;19.50;99.90
54930;DHT22;40833;53.238;6.576;2023-07-02T14:10:19;19.70;99.90
54930;DHT22;40833;53.238;6.576;2023-07-02T14:17:38;17.10;99.90
54930;DHT22;40833;53.238;6.576;2023-07-02T14:20:05;19.70;99.90
54930;DHT22;40833;53.238;6.576;2023-07-02T14:34:41;18.80;99.90
54930;DHT22;40833;53.238;6.576;2023-07-02T14:37:08;18.80;99.90
54930;DHT22;40833;53.238;6.576;2023-07-02T14:39:33;19.00;99.90
54930;DHT22;40833;53.238;6.576;2023-07-02T14:41:59;18.40;99.90
54930;DHT22;40833;53.238;6.576;2023-07-02T14:44:25;18.70;99.90
54930;DHT22;40833;53.238;6.576;2023-07-02T14:49:17;18.80;99.90
54930;DHT22;40833;53.238;6.576;2023-07-02T15:01:29;19.30;99.90
54930;DHT22;40833;53.238;6.576;2023-07-02T15:03:55;19.30;99.90
54930;DHT22;40833;53.238;6.576;2023-07-02T15:06:21;19.20;99.90
54930;DHT22;40833;53.238;6.576;2023-07-02T15:08:46;18.80;99.90
54930;DHT22;40833;53.238;6.576;2023-07-02T15:11:14;19.70;99.90
54930;DHT22;40833;53.238;6.576;2023-07-02T15:16:08;20.60;99.80
54930;DHT22;40833;53.238;6.576;2023-07-02T15:23:29;20.50;97.60
54930;DHT22;40833;53.238;6.576;2023-07-02T15:26:00;20.30;96.80
54930;DHT22;40833;53.238;6.576;2023-07-02T15:28:27;20.30;96.80
54930;DHT22;40833;53.238;6.576;2023-07-02T15:30:55;20.30;96.70
54930;DHT22;40833;53.238;6.576;2023-07-02T15:33:21;20.30;97.30
54930;DHT22;40833;53.238;6.576;2023-07-02T15:55:18;18.80;97.70
54930;DHT22;40833;53.238;6.576;2023-07-02T16:00:11;18.30;99.90
54930;DHT22;40833;53.238;6.576;2023-07-02T16:09:58;18.30;99.90
54930;DHT22;40833;53.238;6.576;2023-07-02T16:17:16;18.20;99.90
54930;DHT22;40833;53.238;6.576;2023-07-02T16:29:28;18.20;99.90
54930;DHT22;40833;53.238;6.576;2023-07-02T16:31:59;18.30;99.90
54930;DHT22;40833;53.238;6.576;2023-07-02T16:34:26;18.50;99.90
54930;DHT22;40833;53.238;6.576;2023-07-02T16:39:19;19.00;99.90
54930;DHT22;40833;53.238;6.576;2023-07-02T16:44:32;18.70;99.90
54930;DHT22;40833;53.238;6.576;2023-07-02T16:47:01;18.60;99.90
54930;DHT22;40833;53.238;6.576;2023-07-02T16:49:27;18.50;99.90
54930;DHT22;40833;53.238;6.576;2023-07-02T16:51:54;18.50;99.90
54930;DHT22;40833;53.238;6.576;2023-07-02T16:54:21;18.50;99.90
54930;DHT22;40833;53.238;6.576;2023-07-02T16:56:55;18.50;99.90
54930;DHT22;40833;53.238;6.576;2023-07-02T16:59:23;18.40;99.90
54930;DHT22;40833;53.238;6.576;2023-07-02T17:01:51;18.30;99.90
54930;DHT22;40833;53.238;6.576;2023-07-02T17:04:17;18.40;99.90
54930;DHT22;40833;53.238;6.576;2023-07-02T17:06:45;18.30;99.90
54930;DHT22;40833;53.238;6.576;2023-07-02T17:11:47;18.20;99.90
54930;DHT22;40833;53.238;6.576;2023-07-02T17:14:14;18.20;99.90
54930;DHT22;40833;53.238;6.576;2023-07-02T17:16:55;18.10;99.90
54930;DHT22;40833;53.238;6.576;2023-07-02T17:19:33;18.00;99.90
54930;DHT22;40833;53.238;6.576;2023-07-02T17:21:59;18.00;99.90
54930;DHT22;40833;53.238;6.576;2023-07-02T17:24:29;18.00;99.90
54930;DHT22;40833;53.238;6.576;2023-07-02T17:26:57;17.80;99.90
54930;DHT22;40833;53.238;6.576;2023-07-02T17:29:23;17.80;99.90
54930;DHT22;40833;53.238;6.576;2023-07-02T17:31:53;17.50;99.90
54930;DHT22;40833;53.238;6.576;2023-07-02T17:34:21;17.30;99.90
54930;DHT22;40833;53.238;6.576;2023-07-02T17:36:52;17.50;99.90
54930;DHT22;40833;53.238;6.576;2023-07-02T17:41:45;17.40;99.90
54930;DHT22;40833;53.238;6.576;2023-07-02T17:49:05;17.10;99.90
54930;DHT22;40833;53.238;6.576;2023-07-02T17:51:33;17.10;99.90
54930;DHT22;40833;53.238;6.576;2023-07-02T17:58:52;17.00;99.90
54930;DHT22;40833;53.238;6.576;2023-07-02T18:01:20;16.70;99.90
54930;DHT22;40833;53.238;6.576;2023-07-02T18:03:45;16.90;99.90
54930;DHT22;40833;53.238;6.576;2023-07-02T18:06:11;17.30;99.90
54930;DHT22;40833;53.238;6.576;2023-07-02T18:11:03;17.00;99.90
54930;DHT22;40833;53.238;6.576;2023-07-02T18:13:29;16.80;99.90
54930;DHT22;40833;53.238;6.576;2023-07-02T18:15:54;17.00;99.90
54930;DHT22;40833;53.238;6.576;2023-07-02T18:25:40;17.30;99.90
54930;DHT22;40833;53.238;6.576;2023-07-02T18:28:08;17.40;99.90
54930;DHT22;40833;53.238;6.576;2023-07-02T18:33:07;17.40;99.90
54930;DHT22;40833;53.238;6.576;2023-07-02T18:35:34;17.40;99.90
54930;DHT22;40833;53.238;6.576;2023-07-02T18:38:00;17.30;99.90
54930;DHT22;40833;53.238;6.576;2023-07-02T18:40:28;17.30;99.90
54930;DHT22;40833;53.238;6.576;2023-07-02T18:42:53;17.30;99.90
54930;DHT22;40833;53.238;6.576;2023-07-02T18:45:19;17.30;99.90
54930;DHT22;40833;53.238;6.576;2023-07-02T18:47:47;17.30;99.90
54930;DHT22;40833;53.238;6.576;2023-07-02T18:50:14;17.30;99.90
54930;DHT22;40833;53.238;6.576;2023-07-02T18:52:41;17.30;99.90
54930;DHT22;40833;53.238;6.576;2023-07-02T18:55:08;17.30;99.90
54930;DHT22;40833;53.238;6.576;2023-07-02T18:57:34;17.20;99.90
54930;DHT22;40833;53.238;6.576;2023-07-02T19:00:01;17.10;99.90
54930;DHT22;40833;53.238;6.576;2023-07-02T19:02:27;16.80;99.90
54930;DHT22;40833;53.238;6.576;2023-07-02T19:04:54;17.30;99.90
54930;DHT22;40833;53.238;6.576;2023-07-02T19:07:21;16.50;99.90
54930;DHT22;40833;53.238;6.576;2023-07-02T19:09:48;16.70;99.90
54930;DHT22;40833;53.238;6.576;2023-07-02T19:12:13;16.20;99.90
54930;DHT22;40833;53.238;6.576;2023-07-02T19:17:11;16.20;99.90
54930;DHT22;40833;53.238;6.576;2023-07-02T19:19:38;16.00;99.90
54930;DHT22;40833;53.238;6.576;2023-07-02T19:22:12;15.90;99.90
54930;DHT22;40833;53.238;6.576;2023-07-02T19:27:06;15.80;99.90
54930;DHT22;40833;53.238;6.576;2023-07-02T19:39:18;15.50;99.90
54930;DHT22;40833;53.238;6.576;2023-07-02T19:41:45;15.50;99.90
54930;DHT22;40833;53.238;6.576;2023-07-02T19:44:13;15.50;99.90
54930;DHT22;40833;53.238;6.576;2023-07-02T19:51:32;15.50;99.90
54930;DHT22;40833;53.238;6.576;2023-07-02T20:21:06;15.60;99.90
54930;DHT22;40833;53.238;6.576;2023-07-02T20:45:38;15.80;99.90
54930;DHT22;40833;53.238;6.576;2023-07-02T20:48:04;16.00;99.90
54930;DHT22;40833;53.238;6.576;2023-07-02T20:50:30;16.10;99.90
54930;DHT22;40833;53.238;6.576;2023-07-02T21:00:15;16.00;99.90
54930;DHT22;40833;53.238;6.576;2023-07-02T21:02:42;16.00;99.90
54930;DHT22;40833;53.238;6.576;2023-07-02T21:05:09;16.10;99.90
54930;DHT22;40833;53.238;6.576;2023-07-02T22:25:41;16.10;99.90
54930;DHT22;40833;53.238;6.576;2023-07-02T22:40:21;16.10;99.90
54930;DHT22;40833;53.238;6.576;2023-07-02T22:42:48;15.80;99.90
54930;DHT22;40833;53.238;6.576;2023-07-02T22:45:15;15.70;99.90
54930;DHT22;40833;53.238;6.576;2023-07-02T22:47:42;15.90;99.90
54930;DHT22;40833;53.238;6.576;2023-07-02T22:50:11;15.70;99.90
54930;DHT22;40833;53.238;6.576;2023-07-02T22:55:05;16.10;99.90
54930;DHT22;40833;53.238;6.576;2023-07-02T22:57:34;15.90;99.90
54930;DHT22;40833;53.238;6.576;2023-07-02T23:00:01;15.90;99.90
54930;DHT22;40833;53.238;6.576;2023-07-02T23:02:28;15.90;99.90
54930;DHT22;40833;53.238;6.576;2023-07-02T23:17:04;16.00;99.90
54930;DHT22;40833;53.238;6.576;2023-07-02T23:19:30;15.50;99.90
54930;DHT22;40833;53.238;6.576;2023-07-02T23:21:58;15.90;99.90
54930;DHT22;40833;53.238;6.576;2023-07-02T23:24:24;15.80;99.90
54930;DHT22;40833;53.238;6.576;2023-07-02T23:26:50;15.90;99.90
54930;DHT22;40833;53.238;6.576;2023-07-02T23:29:15;15.70;99.90
54930;DHT22;40833;53.238;6.576;2023-07-02T23:31:46;15.70;99.90
54930;DHT22;40833;53.238;6.576;2023-07-02T23:34:13;15.80;99.90
54930;DHT22;40833;53.238;6.576;2023-07-02T23:36:39;15.80;99.90
54930;DHT22;40833;53.238;6.576;2023-07-02T23:39:05;16.20;99.90
54930;DHT22;40833;53.238;6.576;2023-07-02T23:41:30;15.80;99.90
54930;DHT22;40833;53.238;6.576;2023-07-02T23:43:56;15.70;99.90
54930;DHT22;40833;53.238;6.576;2023-07-02T23:48:48;15.80;99.90
54930;DHT22;40833;53.238;6.576;2023-07-02T23:53:39;15.40;99.90
